sensor_id;sensor_type;location;lat;lon;timestamp;P1;durP1;ratioP1;P2;durP2;ratioP2
10416;SDS011;62605;49.432;8.680;2023-09-30T00:22:13;4.40;;;1.70;;
10416;SDS011;62605;49.432;8.680;2023-09-30T00:46:01;1.75;;;1.60;;
10416;SDS011;62605;49.432;8.680;2023-09-30T00:48:32;3.25;;;1.70;;
10416;SDS011;62605;49.432;8.680;2023-09-30T00:51:01;1.52;;;1.42;;
10416;SDS011;62605;49.432;8.680;2023-09-30T00:53:29;3.95;;;1.90;;
10416;SDS011;62605;49.432;8.680;2023-09-30T00:56:00;3.50;;;1.70;;
10416;SDS011;62605;49.432;8.680;2023-09-30T00:58:40;4.97;;;1.85;;
10416;SDS011;62605;49.432;8.680;2023-09-30T01:17:08;2.90;;;1.48;;
10416;SDS011;62605;49.432;8.680;2023-09-30T01:19:49;2.53;;;1.50;;
10416;SDS011;62605;49.432;8.680;2023-09-30T01:30:35;1.52;;;1.40;;
10416;SDS011;62605;49.432;8.680;2023-09-30T01:50:22;2.58;;;1.77;;
10416;SDS011;62605;49.432;8.680;2023-09-30T01:52:35;1.50;;;1.40;;
10416;SDS011;62605;49.432;8.680;2023-09-30T01:55:06;3.35;;;1.70;;
10416;SDS011;62605;49.432;8.680;2023-09-30T01:57:37;3.08;;;1.30;;
10416;SDS011;62605;49.432;8.680;2023-09-30T02:09:26;2.40;;;1.95;;
10416;SDS011;62605;49.432;8.680;2023-09-30T02:11:54;5.97;;;1.70;;
10416;SDS011;62605;49.432;8.680;2023-09-30T02:14:24;4.50;;;1.83;;
10416;SDS011;62605;49.432;8.680;2023-09-30T02:17:04;3.47;;;2.35;;
10416;SDS011;62605;49.432;8.680;2023-09-30T02:19:32;5.47;;;2.10;;
10416;SDS011;62605;49.432;8.680;2023-09-30T02:22:00;2.30;;;1.55;;
10416;SDS011;62605;49.432;8.680;2023-09-30T02:24:29;2.15;;;1.88;;
10416;SDS011;62605;49.432;8.680;2023-09-30T02:26:57;2.70;;;1.83;;
10416;SDS011;62605;49.432;8.680;2023-09-30T02:29:25;2.55;;;1.90;;
10416;SDS011;62605;49.432;8.680;2023-09-30T02:41:06;1.88;;;1.63;;
10416;SDS011;62605;49.432;8.680;2023-09-30T02:43:34;2.10;;;1.90;;
10416;SDS011;62605;49.432;8.680;2023-09-30T02:46:01;3.33;;;1.83;;
10416;SDS011;62605;49.432;8.680;2023-09-30T02:48:29;1.85;;;1.73;;
10416;SDS011;62605;49.432;8.680;2023-09-30T02:50:57;4.13;;;1.85;;
10416;SDS011;62605;49.432;8.680;2023-09-30T03:28:12;4.15;;;2.20;;
10416;SDS011;62605;49.432;8.680;2023-09-30T03:30:41;4.05;;;2.20;;
10416;SDS011;62605;49.432;8.680;2023-09-30T03:33:08;2.17;;;1.83;;
10416;SDS011;62605;49.432;8.680;2023-09-30T03:35:37;1.98;;;1.80;;
10416;SDS011;62605;49.432;8.680;2023-09-30T03:38:04;5.03;;;2.00;;
10416;SDS011;62605;49.432;8.680;2023-09-30T03:40:35;2.00;;;1.80;;
10416;SDS011;62605;49.432;8.680;2023-09-30T03:43:03;5.35;;;2.17;;
10416;SDS011;62605;49.432;8.680;2023-09-30T03:45:31;2.53;;;2.17;;
10416;SDS011;62605;49.432;8.680;2023-09-30T03:48:02;3.67;;;1.90;;
10416;SDS011;62605;49.432;8.680;2023-09-30T03:50:30;3.03;;;2.47;;
10416;SDS011;62605;49.432;8.680;2023-09-30T03:53:01;2.80;;;1.90;;
10416;SDS011;62605;49.432;8.680;2023-09-30T03:55:30;3.05;;;2.08;;
10416;SDS011;62605;49.432;8.680;2023-09-30T03:57:58;2.20;;;2.00;;
10416;SDS011;62605;49.432;8.680;2023-09-30T04:03:30;3.63;;;2.15;;
10416;SDS011;62605;49.432;8.680;2023-09-30T05:49:25;4.60;;;2.80;;
10416;SDS011;62605;49.432;8.680;2023-09-30T05:51:54;3.80;;;3.33;;
10416;SDS011;62605;49.432;8.680;2023-09-30T06:02:37;5.32;;;3.30;;
10416;SDS011;62605;49.432;8.680;2023-09-30T06:05:30;4.63;;;3.00;;
10416;SDS011;62605;49.432;8.680;2023-09-30T06:14:01;3.53;;;2.45;;
10416;SDS011;62605;49.432;8.680;2023-09-30T06:16:31;2.47;;;2.03;;
10416;SDS011;62605;49.432;8.680;2023-09-30T06:19:00;2.95;;;2.28;;
10416;SDS011;62605;49.432;8.680;2023-09-30T06:21:29;6.70;;;3.00;;
10416;SDS011;62605;49.432;8.680;2023-09-30T06:24:06;6.28;;;2.83;;
10416;SDS011;62605;49.432;8.680;2023-09-30T06:26:34;5.13;;;3.25;;
10416;SDS011;62605;49.432;8.680;2023-09-30T06:29:01;5.35;;;3.03;;
10416;SDS011;62605;49.432;8.680;2023-09-30T06:31:31;10.65;;;3.60;;
10416;SDS011;62605;49.432;8.680;2023-09-30T06:33:59;3.92;;;3.08;;
10416;SDS011;62605;49.432;8.680;2023-09-30T06:36:27;5.70;;;3.20;;
10416;SDS011;62605;49.432;8.680;2023-09-30T06:38:57;5.38;;;3.13;;
10416;SDS011;62605;49.432;8.680;2023-09-30T06:41:26;3.65;;;3.22;;
10416;SDS011;62605;49.432;8.680;2023-09-30T06:43:55;4.40;;;3.50;;
10416;SDS011;62605;49.432;8.680;2023-09-30T06:46:22;4.20;;;3.22;;
10416;SDS011;62605;49.432;8.680;2023-09-30T06:48:52;13.82;;;5.47;;
10416;SDS011;62605;49.432;8.680;2023-09-30T06:51:19;3.97;;;2.75;;
10416;SDS011;62605;49.432;8.680;2023-09-30T06:53:47;5.50;;;3.08;;
10416;SDS011;62605;49.432;8.680;2023-09-30T06:56:17;8.18;;;5.43;;
10416;SDS011;62605;49.432;8.680;2023-09-30T06:58:44;5.53;;;3.08;;
10416;SDS011;62605;49.432;8.680;2023-09-30T07:01:14;16.27;;;6.70;;
10416;SDS011;62605;49.432;8.680;2023-09-30T07:03:45;6.40;;;4.05;;
10416;SDS011;62605;49.432;8.680;2023-09-30T07:06:21;5.40;;;3.47;;
10416;SDS011;62605;49.432;8.680;2023-09-30T07:08:50;5.47;;;3.30;;
10416;SDS011;62605;49.432;8.680;2023-09-30T07:14:06;6.28;;;3.63;;
10416;SDS011;62605;49.432;8.680;2023-09-30T07:16:42;5.55;;;3.65;;
10416;SDS011;62605;49.432;8.680;2023-09-30T07:19:23;5.35;;;3.63;;
10416;SDS011;62605;49.432;8.680;2023-09-30T07:22:10;9.27;;;3.95;;
10416;SDS011;62605;49.432;8.680;2023-09-30T07:24:45;6.22;;;3.60;;
10416;SDS011;62605;49.432;8.680;2023-09-30T07:27:23;8.85;;;3.53;;
10416;SDS011;62605;49.432;8.680;2023-09-30T07:33:05;6.03;;;3.17;;
10416;SDS011;62605;49.432;8.680;2023-09-30T07:38:59;6.65;;;3.28;;
10416;SDS011;62605;49.432;8.680;2023-09-30T07:41:27;7.47;;;3.53;;
10416;SDS011;62605;49.432;8.680;2023-09-30T07:43:55;5.25;;;3.03;;
10416;SDS011;62605;49.432;8.680;2023-09-30T07:46:22;5.22;;;2.85;;
10416;SDS011;62605;49.432;8.680;2023-09-30T07:48:50;3.45;;;2.65;;
10416;SDS011;62605;49.432;8.680;2023-09-30T07:51:18;8.00;;;3.00;;
10416;SDS011;62605;49.432;8.680;2023-09-30T07:53:45;5.05;;;3.13;;
10416;SDS011;62605;49.432;8.680;2023-09-30T07:56:13;7.75;;;2.92;;
10416;SDS011;62605;49.432;8.680;2023-09-30T07:58:41;4.18;;;2.88;;
10416;SDS011;62605;49.432;8.680;2023-09-30T08:01:13;5.45;;;2.63;;
10416;SDS011;62605;49.432;8.680;2023-09-30T08:03:43;3.92;;;2.63;;
10416;SDS011;62605;49.432;8.680;2023-09-30T08:06:10;3.22;;;2.50;;
10416;SDS011;62605;49.432;8.680;2023-09-30T08:08:38;4.20;;;2.25;;
10416;SDS011;62605;49.432;8.680;2023-09-30T08:11:12;4.10;;;2.53;;
10416;SDS011;62605;49.432;8.680;2023-09-30T08:13:39;4.57;;;2.65;;
10416;SDS011;62605;49.432;8.680;2023-09-30T08:16:06;4.68;;;2.47;;
10416;SDS011;62605;49.432;8.680;2023-09-30T08:18:35;5.95;;;2.25;;
10416;SDS011;62605;49.432;8.680;2023-09-30T08:21:02;6.05;;;2.33;;
10416;SDS011;62605;49.432;8.680;2023-09-30T08:23:30;3.75;;;2.10;;
10416;SDS011;62605;49.432;8.680;2023-09-30T08:25:58;2.35;;;1.90;;
10416;SDS011;62605;49.432;8.680;2023-09-30T08:28:28;5.68;;;1.98;;
10416;SDS011;62605;49.432;8.680;2023-09-30T08:30:56;5.32;;;2.60;;
10416;SDS011;62605;49.432;8.680;2023-09-30T08:33:28;2.90;;;1.70;;
10416;SDS011;62605;49.432;8.680;2023-09-30T08:36:00;2.75;;;1.95;;
10416;SDS011;62605;49.432;8.680;2023-09-30T08:38:33;3.47;;;2.15;;
10416;SDS011;62605;49.432;8.680;2023-09-30T08:41:01;3.30;;;1.52;;
10416;SDS011;62605;49.432;8.680;2023-09-30T08:43:28;1.85;;;1.60;;
10416;SDS011;62605;49.432;8.680;2023-09-30T08:45:59;2.50;;;1.70;;
10416;SDS011;62605;49.432;8.680;2023-09-30T08:48:36;3.35;;;2.00;;
10416;SDS011;62605;49.432;8.680;2023-09-30T08:51:18;3.05;;;1.70;;
10416;SDS011;62605;49.432;8.680;2023-09-30T08:54:05;3.10;;;1.80;;
10416;SDS011;62605;49.432;8.680;2023-09-30T08:56:32;3.33;;;1.73;;
10416;SDS011;62605;49.432;8.680;2023-09-30T08:59:04;3.90;;;2.05;;
10416;SDS011;62605;49.432;8.680;2023-09-30T09:01:31;3.90;;;1.60;;
10416;SDS011;62605;49.432;8.680;2023-09-30T09:04:00;4.85;;;1.60;;
10416;SDS011;62605;49.432;8.680;2023-09-30T09:06:30;3.22;;;1.45;;
10416;SDS011;62605;49.432;8.680;2023-09-30T09:09:12;2.85;;;1.67;;
10416;SDS011;62605;49.432;8.680;2023-09-30T09:11:40;3.08;;;1.48;;
10416;SDS011;62605;49.432;8.680;2023-09-30T09:14:08;4.93;;;1.90;;
10416;SDS011;62605;49.432;8.680;2023-09-30T09:16:37;2.97;;;1.63;;
10416;SDS011;62605;49.432;8.680;2023-09-30T09:19:30;4.90;;;1.65;;
10416;SDS011;62605;49.432;8.680;2023-09-30T09:21:59;4.55;;;1.55;;
10416;SDS011;62605;49.432;8.680;2023-09-30T09:24:31;2.72;;;1.38;;
10416;SDS011;62605;49.432;8.680;2023-09-30T09:27:06;2.90;;;1.60;;
10416;SDS011;62605;49.432;8.680;2023-09-30T09:29:33;3.92;;;1.65;;
10416;SDS011;62605;49.432;8.680;2023-09-30T09:32:08;2.10;;;1.45;;
10416;SDS011;62605;49.432;8.680;2023-09-30T09:34:37;4.40;;;2.13;;
10416;SDS011;62605;49.432;8.680;2023-09-30T09:37:16;3.30;;;1.50;;
10416;SDS011;62605;49.432;8.680;2023-09-30T09:39:51;2.33;;;1.67;;
10416;SDS011;62605;49.432;8.680;2023-09-30T09:42:24;4.85;;;1.40;;
10416;SDS011;62605;49.432;8.680;2023-09-30T09:44:54;2.45;;;1.73;;
10416;SDS011;62605;49.432;8.680;2023-09-30T09:47:22;2.60;;;1.60;;
10416;SDS011;62605;49.432;8.680;2023-09-30T09:49:50;3.50;;;1.50;;
10416;SDS011;62605;49.432;8.680;2023-09-30T09:52:24;2.78;;;1.58;;
10416;SDS011;62605;49.432;8.680;2023-09-30T09:54:56;2.40;;;1.60;;
10416;SDS011;62605;49.432;8.680;2023-09-30T09:57:24;3.22;;;1.70;;
10416;SDS011;62605;49.432;8.680;2023-09-30T09:59:54;2.38;;;1.60;;
10416;SDS011;62605;49.432;8.680;2023-09-30T10:02:22;2.33;;;1.70;;
10416;SDS011;62605;49.432;8.680;2023-09-30T10:04:51;6.57;;;2.03;;
10416;SDS011;62605;49.432;8.680;2023-09-30T10:07:20;2.03;;;1.45;;
10416;SDS011;62605;49.432;8.680;2023-09-30T10:09:51;3.95;;;1.75;;
10416;SDS011;62605;49.432;8.680;2023-09-30T10:12:20;1.90;;;1.63;;
10416;SDS011;62605;49.432;8.680;2023-09-30T10:14:48;2.47;;;1.63;;
10416;SDS011;62605;49.432;8.680;2023-09-30T10:17:15;2.22;;;1.30;;
10416;SDS011;62605;49.432;8.680;2023-09-30T10:20:03;6.00;;;2.15;;
10416;SDS011;62605;49.432;8.680;2023-09-30T10:22:33;2.53;;;1.70;;
10416;SDS011;62605;49.432;8.680;2023-09-30T10:25:00;2.92;;;1.67;;
10416;SDS011;62605;49.432;8.680;2023-09-30T10:27:48;3.13;;;1.75;;
10416;SDS011;62605;49.432;8.680;2023-09-30T10:30:22;3.72;;;2.10;;
10416;SDS011;62605;49.432;8.680;2023-09-30T10:33:09;4.85;;;2.60;;
10416;SDS011;62605;49.432;8.680;2023-09-30T10:35:44;4.32;;;1.77;;
10416;SDS011;62605;49.432;8.680;2023-09-30T10:41:07;3.13;;;2.13;;
10416;SDS011;62605;49.432;8.680;2023-09-30T10:43:35;6.93;;;2.75;;
10416;SDS011;62605;49.432;8.680;2023-09-30T10:46:03;4.38;;;2.40;;
10416;SDS011;62605;49.432;8.680;2023-09-30T10:48:35;4.82;;;2.20;;
10416;SDS011;62605;49.432;8.680;2023-09-30T10:51:12;3.97;;;2.08;;
10416;SDS011;62605;49.432;8.680;2023-09-30T10:53:48;5.57;;;2.38;;
10416;SDS011;62605;49.432;8.680;2023-09-30T10:56:18;4.13;;;2.13;;
10416;SDS011;62605;49.432;8.680;2023-09-30T10:58:46;3.15;;;1.95;;
10416;SDS011;62605;49.432;8.680;2023-09-30T11:01:16;4.35;;;2.20;;
10416;SDS011;62605;49.432;8.680;2023-09-30T11:03:49;2.85;;;1.90;;
10416;SDS011;62605;49.432;8.680;2023-09-30T11:06:39;5.70;;;2.42;;
10416;SDS011;62605;49.432;8.680;2023-09-30T11:09:08;4.88;;;2.00;;
10416;SDS011;62605;49.432;8.680;2023-09-30T11:11:39;3.53;;;1.85;;
10416;SDS011;62605;49.432;8.680;2023-09-30T11:14:19;4.35;;;2.35;;
10416;SDS011;62605;49.432;8.680;2023-09-30T11:16:47;5.35;;;2.50;;
10416;SDS011;62605;49.432;8.680;2023-09-30T11:19:15;5.78;;;2.33;;
10416;SDS011;62605;49.432;8.680;2023-09-30T11:21:46;2.47;;;1.83;;
10416;SDS011;62605;49.432;8.680;2023-09-30T11:24:16;5.25;;;2.38;;
10416;SDS011;62605;49.432;8.680;2023-09-30T11:26:43;5.13;;;2.60;;
10416;SDS011;62605;49.432;8.680;2023-09-30T11:29:13;5.15;;;2.83;;
10416;SDS011;62605;49.432;8.680;2023-09-30T11:31:43;6.82;;;3.03;;
10416;SDS011;62605;49.432;8.680;2023-09-30T11:34:12;6.75;;;3.10;;
10416;SDS011;62605;49.432;8.680;2023-09-30T11:36:40;8.13;;;2.63;;
10416;SDS011;62605;49.432;8.680;2023-09-30T11:39:22;6.05;;;2.15;;
10416;SDS011;62605;49.432;8.680;2023-09-30T11:41:50;4.55;;;2.90;;
10416;SDS011;62605;49.432;8.680;2023-09-30T11:44:17;3.42;;;2.20;;
10416;SDS011;62605;49.432;8.680;2023-09-30T11:46:49;3.33;;;2.17;;
10416;SDS011;62605;49.432;8.680;2023-09-30T11:49:28;4.60;;;2.42;;
10416;SDS011;62605;49.432;8.680;2023-09-30T11:51:57;6.43;;;2.38;;
10416;SDS011;62605;49.432;8.680;2023-09-30T11:54:30;4.30;;;2.33;;
10416;SDS011;62605;49.432;8.680;2023-09-30T11:56:58;5.40;;;2.63;;
10416;SDS011;62605;49.432;8.680;2023-09-30T11:59:26;8.32;;;2.70;;
10416;SDS011;62605;49.432;8.680;2023-09-30T12:01:54;5.13;;;2.50;;
10416;SDS011;62605;49.432;8.680;2023-09-30T12:04:21;6.97;;;2.45;;
10416;SDS011;62605;49.432;8.680;2023-09-30T12:06:49;6.82;;;2.75;;
10416;SDS011;62605;49.432;8.680;2023-09-30T12:09:17;3.83;;;2.17;;
10416;SDS011;62605;49.432;8.680;2023-09-30T12:11:49;6.00;;;2.30;;
10416;SDS011;62605;49.432;8.680;2023-09-30T12:14:16;4.78;;;2.40;;
10416;SDS011;62605;49.432;8.680;2023-09-30T12:16:43;3.28;;;2.05;;
10416;SDS011;62605;49.432;8.680;2023-09-30T12:19:12;5.40;;;2.75;;
10416;SDS011;62605;49.432;8.680;2023-09-30T12:21:40;5.28;;;2.45;;
10416;SDS011;62605;49.432;8.680;2023-09-30T12:24:08;5.10;;;2.70;;
10416;SDS011;62605;49.432;8.680;2023-09-30T12:26:39;5.97;;;2.72;;
10416;SDS011;62605;49.432;8.680;2023-09-30T12:29:08;5.22;;;2.28;;
10416;SDS011;62605;49.432;8.680;2023-09-30T12:31:35;4.05;;;2.00;;
10416;SDS011;62605;49.432;8.680;2023-09-30T12:34:03;4.43;;;2.40;;
10416;SDS011;62605;49.432;8.680;2023-09-30T12:36:31;2.70;;;2.03;;
10416;SDS011;62605;49.432;8.680;2023-09-30T12:38:59;4.10;;;2.28;;
10416;SDS011;62605;49.432;8.680;2023-09-30T12:41:26;4.78;;;2.40;;
10416;SDS011;62605;49.432;8.680;2023-09-30T12:43:57;5.35;;;2.40;;
10416;SDS011;62605;49.432;8.680;2023-09-30T12:46:26;5.22;;;2.42;;
10416;SDS011;62605;49.432;8.680;2023-09-30T12:48:53;5.50;;;2.85;;
10416;SDS011;62605;49.432;8.680;2023-09-30T12:51:21;4.70;;;2.42;;
10416;SDS011;62605;49.432;8.680;2023-09-30T12:53:48;2.78;;;2.03;;
10416;SDS011;62605;49.432;8.680;2023-09-30T12:56:16;5.10;;;2.35;;
10416;SDS011;62605;49.432;8.680;2023-09-30T12:58:44;5.20;;;2.00;;
10416;SDS011;62605;49.432;8.680;2023-09-30T13:01:11;4.10;;;2.10;;
10416;SDS011;62605;49.432;8.680;2023-09-30T13:03:40;5.55;;;2.28;;
10416;SDS011;62605;49.432;8.680;2023-09-30T13:06:08;4.85;;;1.92;;
10416;SDS011;62605;49.432;8.680;2023-09-30T13:08:35;4.78;;;2.38;;
10416;SDS011;62605;49.432;8.680;2023-09-30T13:11:04;6.78;;;2.65;;
10416;SDS011;62605;49.432;8.680;2023-09-30T13:13:31;5.13;;;2.30;;
10416;SDS011;62605;49.432;8.680;2023-09-30T13:16:00;5.20;;;2.50;;
10416;SDS011;62605;49.432;8.680;2023-09-30T13:18:28;5.70;;;2.10;;
10416;SDS011;62605;49.432;8.680;2023-09-30T13:20:56;5.05;;;2.20;;
10416;SDS011;62605;49.432;8.680;2023-09-30T13:23:24;3.42;;;1.85;;
10416;SDS011;62605;49.432;8.680;2023-09-30T13:25:52;6.15;;;2.65;;
10416;SDS011;62605;49.432;8.680;2023-09-30T13:28:19;5.80;;;2.80;;
10416;SDS011;62605;49.432;8.680;2023-09-30T13:30:47;4.38;;;2.08;;
10416;SDS011;62605;49.432;8.680;2023-09-30T13:33:14;4.70;;;2.30;;
10416;SDS011;62605;49.432;8.680;2023-09-30T13:35:44;5.45;;;2.08;;
10416;SDS011;62605;49.432;8.680;2023-09-30T13:38:13;5.03;;;2.22;;
10416;SDS011;62605;49.432;8.680;2023-09-30T13:40:42;6.53;;;2.55;;
10416;SDS011;62605;49.432;8.680;2023-09-30T13:43:09;4.25;;;2.20;;
10416;SDS011;62605;49.432;8.680;2023-09-30T13:45:36;3.28;;;2.03;;
10416;SDS011;62605;49.432;8.680;2023-09-30T13:48:04;3.70;;;2.10;;
10416;SDS011;62605;49.432;8.680;2023-09-30T13:50:32;5.95;;;1.98;;
10416;SDS011;62605;49.432;8.680;2023-09-30T13:53:00;4.30;;;2.15;;
10416;SDS011;62605;49.432;8.680;2023-09-30T13:55:29;5.32;;;2.35;;
10416;SDS011;62605;49.432;8.680;2023-09-30T13:57:57;4.55;;;2.35;;
10416;SDS011;62605;49.432;8.680;2023-09-30T14:00:24;4.53;;;2.50;;
10416;SDS011;62605;49.432;8.680;2023-09-30T14:02:51;2.88;;;1.92;;
10416;SDS011;62605;49.432;8.680;2023-09-30T14:05:19;4.13;;;2.30;;
10416;SDS011;62605;49.432;8.680;2023-09-30T14:07:47;5.00;;;2.55;;
10416;SDS011;62605;49.432;8.680;2023-09-30T14:10:14;4.15;;;2.50;;
10416;SDS011;62605;49.432;8.680;2023-09-30T14:12:43;6.45;;;2.08;;
10416;SDS011;62605;49.432;8.680;2023-09-30T14:15:10;5.18;;;2.55;;
10416;SDS011;62605;49.432;8.680;2023-09-30T14:17:38;3.58;;;2.08;;
10416;SDS011;62605;49.432;8.680;2023-09-30T14:20:06;6.13;;;2.33;;
10416;SDS011;62605;49.432;8.680;2023-09-30T14:22:34;4.68;;;2.00;;
10416;SDS011;62605;49.432;8.680;2023-09-30T14:25:01;3.45;;;2.15;;
10416;SDS011;62605;49.432;8.680;2023-09-30T14:27:29;4.53;;;2.13;;
10416;SDS011;62605;49.432;8.680;2023-09-30T14:29:58;3.03;;;2.03;;
10416;SDS011;62605;49.432;8.680;2023-09-30T14:32:25;4.55;;;2.20;;
10416;SDS011;62605;49.432;8.680;2023-09-30T14:34:52;3.88;;;2.20;;
10416;SDS011;62605;49.432;8.680;2023-09-30T14:37:20;3.38;;;1.75;;
10416;SDS011;62605;49.432;8.680;2023-09-30T14:39:48;3.95;;;2.00;;
10416;SDS011;62605;49.432;8.680;2023-09-30T14:42:15;4.53;;;2.15;;
10416;SDS011;62605;49.432;8.680;2023-09-30T14:44:42;3.65;;;2.15;;
10416;SDS011;62605;49.432;8.680;2023-09-30T14:47:11;6.57;;;1.80;;
10416;SDS011;62605;49.432;8.680;2023-09-30T14:49:38;3.58;;;2.10;;
10416;SDS011;62605;49.432;8.680;2023-09-30T14:52:05;5.03;;;2.30;;
10416;SDS011;62605;49.432;8.680;2023-09-30T14:54:32;6.13;;;2.20;;
10416;SDS011;62605;49.432;8.680;2023-09-30T14:56:59;4.55;;;2.47;;
10416;SDS011;62605;49.432;8.680;2023-09-30T14:59:27;5.30;;;2.40;;
10416;SDS011;62605;49.432;8.680;2023-09-30T15:01:54;5.05;;;2.40;;
10416;SDS011;62605;49.432;8.680;2023-09-30T15:04:22;5.97;;;2.70;;
10416;SDS011;62605;49.432;8.680;2023-09-30T15:06:49;5.88;;;2.58;;
10416;SDS011;62605;49.432;8.680;2023-09-30T15:09:17;4.15;;;2.05;;
10416;SDS011;62605;49.432;8.680;2023-09-30T15:11:44;3.03;;;1.95;;
10416;SDS011;62605;49.432;8.680;2023-09-30T15:14:11;3.83;;;1.98;;
10416;SDS011;62605;49.432;8.680;2023-09-30T15:16:39;3.35;;;2.00;;
10416;SDS011;62605;49.432;8.680;2023-09-30T15:19:06;3.08;;;1.88;;
10416;SDS011;62605;49.432;8.680;2023-09-30T15:21:35;5.40;;;2.38;;
10416;SDS011;62605;49.432;8.680;2023-09-30T15:24:02;4.07;;;2.13;;
10416;SDS011;62605;49.432;8.680;2023-09-30T15:26:30;5.53;;;2.05;;
10416;SDS011;62605;49.432;8.680;2023-09-30T15:28:58;3.80;;;2.05;;
10416;SDS011;62605;49.432;8.680;2023-09-30T15:31:26;4.57;;;2.47;;
10416;SDS011;62605;49.432;8.680;2023-09-30T15:33:54;7.32;;;2.60;;
10416;SDS011;62605;49.432;8.680;2023-09-30T15:36:22;3.28;;;2.08;;
10416;SDS011;62605;49.432;8.680;2023-09-30T15:38:52;6.53;;;2.47;;
10416;SDS011;62605;49.432;8.680;2023-09-30T15:41:20;4.53;;;2.33;;
10416;SDS011;62605;49.432;8.680;2023-09-30T15:43:49;7.63;;;2.63;;
10416;SDS011;62605;49.432;8.680;2023-09-30T15:46:17;4.18;;;2.10;;
10416;SDS011;62605;49.432;8.680;2023-09-30T15:48:44;2.78;;;1.83;;
10416;SDS011;62605;49.432;8.680;2023-09-30T15:51:12;4.07;;;2.15;;
10416;SDS011;62605;49.432;8.680;2023-09-30T15:53:39;5.18;;;2.58;;
10416;SDS011;62605;49.432;8.680;2023-09-30T15:56:08;5.57;;;2.50;;
10416;SDS011;62605;49.432;8.680;2023-09-30T15:58:35;5.53;;;2.65;;
10416;SDS011;62605;49.432;8.680;2023-09-30T16:01:02;5.13;;;2.45;;
10416;SDS011;62605;49.432;8.680;2023-09-30T16:03:29;3.33;;;2.15;;
10416;SDS011;62605;49.432;8.680;2023-09-30T16:05:57;4.88;;;2.58;;
10416;SDS011;62605;49.432;8.680;2023-09-30T16:08:24;5.63;;;2.10;;
10416;SDS011;62605;49.432;8.680;2023-09-30T16:10:51;3.50;;;2.10;;
10416;SDS011;62605;49.432;8.680;2023-09-30T16:13:20;5.63;;;2.20;;
10416;SDS011;62605;49.432;8.680;2023-09-30T16:15:47;4.57;;;2.83;;
10416;SDS011;62605;49.432;8.680;2023-09-30T16:18:14;6.10;;;2.85;;
10416;SDS011;62605;49.432;8.680;2023-09-30T16:20:41;5.45;;;2.65;;
10416;SDS011;62605;49.432;8.680;2023-09-30T16:23:09;6.07;;;2.80;;
10416;SDS011;62605;49.432;8.680;2023-09-30T16:25:36;5.43;;;2.42;;
10416;SDS011;62605;49.432;8.680;2023-09-30T16:28:03;3.90;;;2.40;;
10416;SDS011;62605;49.432;8.680;2023-09-30T16:30:32;4.38;;;2.50;;
10416;SDS011;62605;49.432;8.680;2023-09-30T16:33:00;3.78;;;2.40;;
10416;SDS011;62605;49.432;8.680;2023-09-30T16:35:28;3.35;;;2.08;;
10416;SDS011;62605;49.432;8.680;2023-09-30T16:37:55;5.38;;;2.50;;
10416;SDS011;62605;49.432;8.680;2023-09-30T16:40:22;6.07;;;2.55;;
10416;SDS011;62605;49.432;8.680;2023-09-30T16:42:50;8.85;;;3.03;;
10416;SDS011;62605;49.432;8.680;2023-09-30T16:45:19;7.03;;;2.38;;
10416;SDS011;62605;49.432;8.680;2023-09-30T16:47:48;5.47;;;2.20;;
10416;SDS011;62605;49.432;8.680;2023-09-30T16:50:16;4.15;;;2.10;;
10416;SDS011;62605;49.432;8.680;2023-09-30T16:52:44;3.83;;;2.35;;
10416;SDS011;62605;49.432;8.680;2023-09-30T16:55:11;5.57;;;2.40;;
10416;SDS011;62605;49.432;8.680;2023-09-30T16:57:39;5.13;;;2.08;;
10416;SDS011;62605;49.432;8.680;2023-09-30T17:00:07;3.90;;;2.00;;
10416;SDS011;62605;49.432;8.680;2023-09-30T17:02:36;3.50;;;2.05;;
10416;SDS011;62605;49.432;8.680;2023-09-30T17:05:06;4.53;;;2.30;;
10416;SDS011;62605;49.432;8.680;2023-09-30T17:07:33;4.57;;;2.50;;
10416;SDS011;62605;49.432;8.680;2023-09-30T17:10:01;4.50;;;1.90;;
10416;SDS011;62605;49.432;8.680;2023-09-30T17:12:30;6.07;;;2.40;;
10416;SDS011;62605;49.432;8.680;2023-09-30T17:14:58;4.80;;;2.28;;
10416;SDS011;62605;49.432;8.680;2023-09-30T17:17:25;3.50;;;2.10;;
10416;SDS011;62605;49.432;8.680;2023-09-30T17:19:54;2.35;;;1.80;;
10416;SDS011;62605;49.432;8.680;2023-09-30T17:22:23;5.00;;;2.15;;
10416;SDS011;62605;49.432;8.680;2023-09-30T17:24:51;5.55;;;2.00;;
10416;SDS011;62605;49.432;8.680;2023-09-30T17:27:18;4.20;;;2.35;;
10416;SDS011;62605;49.432;8.680;2023-09-30T17:29:45;3.40;;;2.03;;
10416;SDS011;62605;49.432;8.680;2023-09-30T17:32:12;5.28;;;2.30;;
10416;SDS011;62605;49.432;8.680;2023-09-30T17:34:46;3.85;;;1.92;;
10416;SDS011;62605;49.432;8.680;2023-09-30T17:37:19;3.80;;;2.05;;
10416;SDS011;62605;49.432;8.680;2023-09-30T17:39:48;5.07;;;2.38;;
10416;SDS011;62605;49.432;8.680;2023-09-30T17:42:16;4.10;;;2.03;;
10416;SDS011;62605;49.432;8.680;2023-09-30T17:44:44;5.43;;;2.42;;
10416;SDS011;62605;49.432;8.680;2023-09-30T17:47:13;2.75;;;1.95;;
10416;SDS011;62605;49.432;8.680;2023-09-30T17:49:40;3.88;;;2.20;;
10416;SDS011;62605;49.432;8.680;2023-09-30T17:52:08;4.05;;;2.47;;
10416;SDS011;62605;49.432;8.680;2023-09-30T17:54:36;4.38;;;2.05;;
10416;SDS011;62605;49.432;8.680;2023-09-30T17:57:06;4.70;;;2.20;;
10416;SDS011;62605;49.432;8.680;2023-09-30T17:59:33;3.85;;;2.15;;
10416;SDS011;62605;49.432;8.680;2023-09-30T18:02:01;4.05;;;2.28;;
10416;SDS011;62605;49.432;8.680;2023-09-30T18:04:29;4.78;;;2.25;;
10416;SDS011;62605;49.432;8.680;2023-09-30T18:06:56;4.43;;;2.55;;
10416;SDS011;62605;49.432;8.680;2023-09-30T18:09:24;4.30;;;2.00;;
10416;SDS011;62605;49.432;8.680;2023-09-30T18:11:51;4.90;;;2.17;;
10416;SDS011;62605;49.432;8.680;2023-09-30T18:14:20;4.65;;;2.15;;
10416;SDS011;62605;49.432;8.680;2023-09-30T18:16:47;4.90;;;1.85;;
10416;SDS011;62605;49.432;8.680;2023-09-30T18:19:14;3.00;;;2.03;;
10416;SDS011;62605;49.432;8.680;2023-09-30T18:21:43;4.45;;;1.98;;
10416;SDS011;62605;49.432;8.680;2023-09-30T18:24:10;6.28;;;2.13;;
10416;SDS011;62605;49.432;8.680;2023-09-30T18:26:37;3.70;;;2.08;;
10416;SDS011;62605;49.432;8.680;2023-09-30T18:29:05;4.13;;;2.20;;
10416;SDS011;62605;49.432;8.680;2023-09-30T18:31:34;4.15;;;2.38;;
10416;SDS011;62605;49.432;8.680;2023-09-30T18:34:03;4.15;;;2.28;;
10416;SDS011;62605;49.432;8.680;2023-09-30T18:36:30;6.13;;;2.35;;
10416;SDS011;62605;49.432;8.680;2023-09-30T18:38:58;4.90;;;2.35;;
10416;SDS011;62605;49.432;8.680;2023-09-30T18:41:25;4.63;;;2.22;;
10416;SDS011;62605;49.432;8.680;2023-09-30T18:43:53;2.60;;;1.88;;
10416;SDS011;62605;49.432;8.680;2023-09-30T18:46:37;3.88;;;1.88;;
10416;SDS011;62605;49.432;8.680;2023-09-30T18:49:08;3.67;;;1.85;;
10416;SDS011;62605;49.432;8.680;2023-09-30T18:52:08;8.55;;;2.83;;
10416;SDS011;62605;49.432;8.680;2023-09-30T18:54:36;6.85;;;2.50;;
10416;SDS011;62605;49.432;8.680;2023-09-30T18:57:03;5.35;;;2.05;;
10416;SDS011;62605;49.432;8.680;2023-09-30T18:59:31;2.78;;;1.67;;
10416;SDS011;62605;49.432;8.680;2023-09-30T19:02:03;2.35;;;1.63;;
10416;SDS011;62605;49.432;8.680;2023-09-30T19:04:34;5.63;;;2.50;;
10416;SDS011;62605;49.432;8.680;2023-09-30T19:07:08;6.60;;;2.42;;
10416;SDS011;62605;49.432;8.680;2023-09-30T19:12:34;5.55;;;2.20;;
10416;SDS011;62605;49.432;8.680;2023-09-30T19:15:01;5.75;;;2.05;;
10416;SDS011;62605;49.432;8.680;2023-09-30T19:17:30;2.85;;;1.95;;
10416;SDS011;62605;49.432;8.680;2023-09-30T19:19:57;3.72;;;2.35;;
10416;SDS011;62605;49.432;8.680;2023-09-30T19:22:24;4.75;;;2.00;;
10416;SDS011;62605;49.432;8.680;2023-09-30T19:24:51;4.50;;;2.10;;
10416;SDS011;62605;49.432;8.680;2023-09-30T19:27:18;3.65;;;2.20;;
10416;SDS011;62605;49.432;8.680;2023-09-30T19:29:46;4.75;;;2.63;;
10416;SDS011;62605;49.432;8.680;2023-09-30T19:32:14;4.47;;;2.67;;
10416;SDS011;62605;49.432;8.680;2023-09-30T19:34:42;5.60;;;2.65;;